Time;durP1;ratioP1;P1;durP2;ratioP2;P2;SDS_P1;SDS_P2;PMS_P1;PMS_P2;Temp;Humidity;BMP_temperature;BMP_pressure;BME280_temperature;BME280_humidity;BME280_pressure;Samples;Min_cycle;Max_cycle;Signal;HPM_P1;HPM_P2
2024/01/01 00:00:22;;;;;;;38.72;21.70;;;7.00;99.90;;;;;;4995311;28;20239;-61
2024/01/01 00:02:50;;;;;;;29.40;17.13;;;7.00;99.90;;;;;;4995219;28;20239;-61
2024/01/01 00:05:18;;;;;;;26.95;14.48;;;7.00;99.90;;;;;;4994995;28;20763;-61
2024/01/01 00:07:50;;;;;;;24.02;14.90;;;7.00;99.90;;;;;;4995430;28;20212;-61
2024/01/01 00:10:20;;;;;;;27.50;16.88;;;7.00;99.90;;;;;;4993649;28;20208;-61
2024/01/01 00:12:47;;;;;;;25.75;15.63;;;7.00;99.90;;;;;;4994123;28;20239;-61
2024/01/01 00:15:15;;;;;;;27.63;14.77;;;7.00;99.90;;;;;;4993756;28;21097;-61
2024/01/01 00:17:43;;;;;;;24.15;14.32;;;7.10;99.90;;;;;;4993609;28;20852;-61
2024/01/01 00:20:11;;;;;;;28.35;16.13;;;7.00;99.90;;;;;;4993523;28;20243;-61
2024/01/01 00:22:41;;;;;;;25.05;15.43;;;7.00;99.90;;;;;;4993587;28;20226;-60
2024/01/01 00:25:09;;;;;;;27.65;16.55;;;7.00;99.90;;;;;;4993454;28;20227;-61
2024/01/01 00:27:38;;;;;;;25.92;16.05;;;7.00;99.90;;;;;;4993319;28;20204;-61
2024/01/01 00:30:07;;;;;;;33.15;18.15;;;7.00;99.90;;;;;;4993644;28;20705;-60
2024/01/01 00:32:35;;;;;;;33.28;18.30;;;7.00;99.90;;;;;;4993455;28;20631;-61
2024/01/01 00:35:05;;;;;;;34.10;19.42;;;7.00;99.90;;;;;;4993426;28;20208;-61
2024/01/01 00:37:33;;;;;;;38.50;19.83;;;7.00;99.90;;;;;;4992947;28;20287;-61
2024/01/01 00:40:02;;;;;;;37.20;21.40;;;7.00;99.90;;;;;;4993331;28;20208;-61
2024/01/01 00:42:34;;;;;;;35.70;23.10;;;7.00;99.90;;;;;;4993227;28;20208;-62
2024/01/01 00:45:03;;;;;;;36.65;22.67;;;7.00;99.90;;;;;;4993085;28;20688;-61
2024/01/01 00:47:31;;;;;;;35.90;20.65;;;7.00;99.90;;;;;;4992855;28;20299;-61
2024/01/01 00:50:00;;;;;;;44.80;23.95;;;7.00;99.90;;;;;;4992933;28;20749;-60
2024/01/01 00:52:28;;;;;;;47.28;25.55;;;7.00;99.90;;;;;;4992919;28;20211;-60
2024/01/01 00:54:56;;;;;;;53.30;28.63;;;7.00;99.90;;;;;;4992010;28;20224;-60
2024/01/01 00:57:24;;;;;;;48.85;29.73;;;7.00;99.90;;;;;;4992656;28;20212;-61
2024/01/01 00:59:52;;;;;;;50.05;31.77;;;7.00;99.90;;;;;;4992991;28;20219;-61
2024/01/01 01:02:21;;;;;;;58.28;33.75;;;7.00;99.90;;;;;;4992663;28;20733;-61
2024/01/01 01:04:49;;;;;;;61.15;35.08;;;7.00;99.90;;;;;;4992734;28;20235;-61
2024/01/01 01:07:20;;;;;;;63.65;35.35;;;6.90;99.90;;;;;;4992238;28;20749;-61
2024/01/01 01:09:47;;;;;;;59.00;36.72;;;6.90;99.90;;;;;;4992891;28;20246;-60
2024/01/01 01:12:16;;;;;;;63.97;38.30;;;6.90;99.90;;;;;;4992523;28;20299;-61
2024/01/01 01:14:44;;;;;;;65.30;37.92;;;6.90;99.90;;;;;;4992719;28;20258;-60
2024/01/01 01:17:12;;;;;;;64.57;38.45;;;6.90;99.90;;;;;;4992225;28;20741;-61
2024/01/01 01:19:41;;;;;;;59.88;35.90;;;6.90;99.90;;;;;;4992477;28;20758;-61
2024/01/01 01:22:09;;;;;;;60.75;35.38;;;6.90;99.90;;;;;;4993506;28;20212;-61
2024/01/01 01:24:37;;;;;;;52.20;32.78;;;6.90;99.90;;;;;;4993854;28;20290;-61
2024/01/01 01:27:05;;;;;;;56.20;32.92;;;6.90;99.90;;;;;;4988021;28;20295;-61
2024/01/01 01:29:33;;;;;;;54.28;32.75;;;7.00;99.90;;;;;;4974354;28;20303;-60
2024/01/01 01:32:00;;;;;;;50.90;31.15;;;7.00;99.90;;;;;;4974286;28;20263;-60
2024/01/01 01:34:28;;;;;;;49.67;29.83;;;7.00;99.90;;;;;;4974027;28;20236;-60
2024/01/01 01:36:58;;;;;;;50.92;31.38;;;7.00;99.90;;;;;;4973896;28;20209;-61
2024/01/01 01:39:26;;;;;;;54.17;30.23;;;7.00;99.90;;;;;;4974165;28;20212;-60
2024/01/01 01:41:53;;;;;;;49.60;29.63;;;7.00;99.90;;;;;;4973913;28;20834;-59
2024/01/01 01:44:21;;;;;;;45.70;28.27;;;7.00;99.90;;;;;;4974231;28;20256;-59
2024/01/01 01:46:49;;;;;;;48.45;27.35;;;7.00;99.90;;;;;;4988372;28;20311;-59
2024/01/01 01:49:18;;;;;;;39.17;24.23;;;7.00;99.90;;;;;;4993185;28;20207;-59
2024/01/01 01:51:48;;;;;;;36.35;21.60;;;7.00;99.90;;;;;;4981275;28;20240;-59
2024/01/01 01:54:17;;;;;;;38.88;23.20;;;7.00;99.90;;;;;;4982411;28;20714;-59
2024/01/01 01:56:45;;;;;;;34.60;20.35;;;7.00;99.90;;;;;;4988408;28;20295;-59
2024/01/01 01:59:13;;;;;;;28.48;17.13;;;7.00;99.90;;;;;;4988606;28;20645;-59
2024/01/01 02:01:41;;;;;;;26.85;15.68;;;7.00;99.90;;;;;;4986702;28;20249;-59
2024/01/01 02:04:09;;;;;;;33.33;15.18;;;7.00;99.90;;;;;;4985718;28;20621;-59
2024/01/01 02:06:37;;;;;;;29.38;14.65;;;7.00;99.90;;;;;;4989511;28;20236;-59
2024/01/01 02:09:06;;;;;;;27.00;13.98;;;7.00;99.90;;;;;;4991274;28;20215;-59
2024/01/01 02:11:35;;;;;;;27.25;13.45;;;7.00;99.90;;;;;;4989322;28;20679;-59
2024/01/01 02:14:10;;;;;;;24.80;13.23;;;7.10;99.90;;;;;;4973588;28;20228;-59
2024/01/01 02:16:38;;;;;;;21.13;11.88;;;7.10;99.90;;;;;;4982580;28;20214;-59
2024/01/01 02:19:09;;;;;;;27.08;13.55;;;7.10;99.90;;;;;;4992700;28;20211;-59
2024/01/01 02:21:37;;;;;;;19.55;12.00;;;7.10;99.90;;;;;;4989254;28;20653;-59
2024/01/01 02:24:06;;;;;;;21.42;11.55;;;7.10;99.90;;;;;;4973524;28;20260;-59
2024/01/01 02:26:34;;;;;;;19.63;11.70;;;7.20;99.90;;;;;;4972951;28;20224;-60
2024/01/01 02:29:02;;;;;;;23.42;11.48;;;7.10;99.90;;;;;;4973329;28;20689;-59
2024/01/01 02:31:30;;;;;;;17.60;9.80;;;7.10;99.90;;;;;;4973069;28;20213;-59
2024/01/01 02:33:58;;;;;;;22.55;10.75;;;7.20;99.90;;;;;;4973150;28;20228;-59
2024/01/01 02:36:26;;;;;;;23.38;11.02;;;7.20;99.90;;;;;;4973109;28;20213;-60
2024/01/01 02:38:54;;;;;;;18.58;9.90;;;7.20;99.90;;;;;;4973485;28;20209;-59
2024/01/01 02:41:23;;;;;;;19.17;9.85;;;7.20;99.90;;;;;;4987183;28;20208;-59
2024/01/01 02:43:51;;;;;;;28.25;10.93;;;7.20;99.90;;;;;;4992221;28;20279;-59
2024/01/01 02:46:19;;;;;;;18.00;9.77;;;7.20;99.90;;;;;;4984788;28;20932;-59
2024/01/01 02:48:46;;;;;;;18.13;9.48;;;7.20;99.90;;;;;;4987769;28;20374;-59
2024/01/01 02:51:14;;;;;;;17.15;8.63;;;7.20;99.90;;;;;;4987953;28;20208;-59
2024/01/01 02:53:42;;;;;;;13.98;6.22;;;7.20;99.90;;;;;;4987886;28;20615;-59
2024/01/01 02:56:16;;;;;;;17.17;6.10;;;7.20;99.90;;;;;;4980833;28;20233;-59
2024/01/01 02:58:46;;;;;;;12.15;5.13;;;7.30;99.90;;;;;;4972727;28;20215;-59
2024/01/01 03:01:13;;;;;;;10.70;4.93;;;7.30;99.90;;;;;;4972492;28;20675;-59
2024/01/01 03:03:41;;;;;;;12.23;4.03;;;7.30;99.90;;;;;;4984382;28;20259;-58
2024/01/01 03:06:10;;;;;;;6.68;3.15;;;7.30;99.90;;;;;;4991887;28;20721;-59
2024/01/01 03:08:38;;;;;;;11.20;3.33;;;7.40;99.90;;;;;;4991807;28;20680;-59
2024/01/01 03:11:06;;;;;;;7.97;2.45;;;7.40;99.90;;;;;;4991985;28;20247;-59
2024/01/01 03:13:34;;;;;;;8.55;2.30;;;7.40;99.90;;;;;;4991948;28;20287;-59
2024/01/01 03:16:04;;;;;;;6.95;2.45;;;7.40;99.90;;;;;;4991904;28;20208;-59
2024/01/01 03:18:31;;;;;;;8.00;2.63;;;7.50;99.90;;;;;;4997977;28;20816;-59
2024/01/01 03:20:59;;;;;;;9.18;2.33;;;7.50;99.90;;;;;;4998481;28;20303;-60
2024/01/01 03:23:27;;;;;;;11.82;3.03;;;7.50;99.90;;;;;;4998416;28;20259;-59
2024/01/01 03:25:55;;;;;;;8.82;3.40;;;7.50;99.90;;;;;;4998276;28;20286;-59
2024/01/01 03:28:23;;;;;;;9.45;3.35;;;7.50;99.90;;;;;;4998323;28;20310;-59
2024/01/01 03:30:51;;;;;;;11.95;3.60;;;7.50;99.90;;;;;;4998258;28;20736;-58
2024/01/01 03:33:20;;;;;;;9.05;4.03;;;7.50;99.90;;;;;;4998585;28;20318;-59
2024/01/01 03:35:48;;;;;;;11.10;3.40;;;7.50;99.90;;;;;;4986199;28;20590;-60
2024/01/01 03:38:16;;;;;;;13.65;3.17;;;7.50;99.90;;;;;;4978778;28;20240;-59
2024/01/01 03:40:45;;;;;;;9.55;2.72;;;7.50;99.90;;;;;;4990580;28;20314;-58
2024/01/01 03:43:13;;;;;;;9.82;2.85;;;7.50;99.90;;;;;;4998328;28;20227;-57
2024/01/01 03:45:41;;;;;;;10.73;2.28;;;7.50;99.90;;;;;;4998315;28;20286;-58
2024/01/01 03:48:09;;;;;;;10.18;2.60;;;7.50;99.90;;;;;;4998101;28;20235;-59
2024/01/01 03:50:39;;;;;;;9.45;2.05;;;7.50;99.90;;;;;;4998177;28;20677;-57
2024/01/01 03:53:07;;;;;;;8.57;1.75;;;7.50;99.90;;;;;;4998042;28;20315;-59
2024/01/01 03:55:35;;;;;;;9.30;1.67;;;7.50;99.90;;;;;;4997627;28;20665;-59
2024/01/01 03:58:03;;;;;;;11.82;2.15;;;7.50;99.90;;;;;;4997938;28;20724;-59
2024/01/01 04:00:31;;;;;;;9.40;1.38;;;7.50;99.90;;;;;;4998243;28;20212;-58
2024/01/01 04:02:59;;;;;;;6.88;1.73;;;7.50;99.90;;;;;;4998011;28;20282;-59
2024/01/01 04:05:27;;;;;;;7.80;1.20;;;7.50;99.90;;;;;;4995886;23;20603;-58
2024/01/01 04:07:57;;;;;;;10.00;1.50;;;7.50;99.90;;;;;;4978975;28;20213;-56
2024/01/01 04:10:24;;;;;;;10.43;1.65;;;7.40;99.90;;;;;;4979011;28;20279;-57
2024/01/01 04:12:52;;;;;;;7.97;1.27;;;7.40;99.90;;;;;;4978796;28;20263;-57
2024/01/01 04:15:20;;;;;;;11.73;1.50;;;7.40;99.90;;;;;;4979010;28;20286;-58
2024/01/01 04:17:48;;;;;;;13.93;1.80;;;7.30;99.90;;;;;;4978865;28;20209;-56
2024/01/01 04:20:16;;;;;;;7.82;1.50;;;7.30;99.90;;;;;;4979252;28;20636;-58
2024/01/01 04:22:45;;;;;;;8.13;1.58;;;7.20;99.90;;;;;;4979303;28;20248;-57
2024/01/01 04:25:14;;;;;;;10.55;2.22;;;7.20;99.90;;;;;;4979447;28;20718;-59
2024/01/01 04:27:42;;;;;;;9.50;1.50;;;7.20;99.90;;;;;;4979408;28;20256;-57
2024/01/01 04:30:11;;;;;;;9.73;1.55;;;7.10;99.90;;;;;;4976057;28;20258;-57
2024/01/01 04:32:39;;;;;;;5.65;1.17;;;7.10;99.90;;;;;;4977055;28;20204;-58
2024/01/01 04:35:07;;;;;;;10.15;1.90;;;7.20;99.90;;;;;;4977120;28;20804;-55
2024/01/01 04:37:35;;;;;;;7.65;1.33;;;7.20;99.90;;;;;;4975546;28;20201;-56
2024/01/01 04:40:05;;;;;;;11.75;1.50;;;7.20;99.90;;;;;;4975393;28;20955;-56
2024/01/01 04:42:34;;;;;;;9.13;1.05;;;7.20;99.90;;;;;;4975150;28;20220;-57
2024/01/01 04:45:02;;;;;;;4.57;0.88;;;7.20;99.90;;;;;;4975325;28;20645;-57
2024/01/01 04:47:30;;;;;;;5.85;0.82;;;7.20;99.90;;;;;;4974683;28;20230;-58
2024/01/01 04:49:58;;;;;;;4.80;0.75;;;7.20;99.90;;;;;;4975380;28;20208;-58
2024/01/01 04:52:26;;;;;;;4.28;0.75;;;7.20;99.90;;;;;;4975135;28;20217;-58
2024/01/01 04:54:55;;;;;;;2.47;0.77;;;7.20;99.90;;;;;;4974779;28;20225;-59
2024/01/01 04:57:23;;;;;;;4.22;0.80;;;7.20;99.90;;;;;;4966773;28;20486;-56
2024/01/01 04:59:52;;;;;;;6.10;0.90;;;7.10;99.90;;;;;;4974945;28;20215;-56
2024/01/01 05:02:20;;;;;;;5.97;1.27;;;7.10;99.90;;;;;;4975106;28;20670;-58
2024/01/01 05:04:48;;;;;;;8.35;1.27;;;7.10;99.90;;;;;;4974865;28;20842;-57
2024/01/01 05:07:16;;;;;;;5.82;1.25;;;7.10;99.90;;;;;;4974528;28;20232;-57
2024/01/01 05:09:43;;;;;;;5.85;1.20;;;7.10;99.90;;;;;;4974768;28;20272;-57
2024/01/01 05:12:13;;;;;;;13.25;1.40;;;7.10;99.90;;;;;;4974608;28;20658;-57
2024/01/01 05:14:41;;;;;;;6.10;1.20;;;7.00;99.90;;;;;;4974619;28;20828;-57
2024/01/01 05:17:10;;;;;;;12.05;1.52;;;7.00;99.90;;;;;;4974553;28;20299;-57
2024/01/01 05:19:38;;;;;;;14.27;1.55;;;7.00;99.90;;;;;;4974653;28;20209;-59
2024/01/01 05:22:06;;;;;;;6.32;1.50;;;6.90;99.90;;;;;;4974525;28;20213;-59
2024/01/01 05:24:35;;;;;;;7.55;1.33;;;6.90;99.90;;;;;;4974399;28;20591;-59
2024/01/01 05:27:07;;;;;;;8.02;1.42;;;6.90;99.90;;;;;;4974039;28;20697;-59
2024/01/01 05:29:35;;;;;;;9.30;1.38;;;6.90;99.90;;;;;;4972301;28;20208;-59
2024/01/01 05:32:03;;;;;;;9.07;1.23;;;6.90;99.90;;;;;;4954306;28;20304;-61
2024/01/01 05:34:32;;;;;;;7.53;1.38;;;6.90;99.90;;;;;;4954724;29;20726;-60
2024/01/01 05:37:00;;;;;;;4.55;1.10;;;6.90;99.90;;;;;;4954679;29;20213;-60
2024/01/01 05:39:28;;;;;;;7.47;1.20;;;6.90;99.90;;;;;;4962991;28;20295;-61
2024/01/01 05:41:56;;;;;;;6.63;0.98;;;7.00;99.90;;;;;;4974347;28;20217;-61
2024/01/01 05:44:24;;;;;;;10.00;1.23;;;7.00;99.90;;;;;;4965626;28;20348;-59
2024/01/01 05:46:52;;;;;;;10.07;1.60;;;7.00;99.90;;;;;;4954646;29;20300;-61
2024/01/01 05:49:20;;;;;;;6.15;1.27;;;7.10;99.90;;;;;;4970273;28;20209;-60
2024/01/01 05:51:49;;;;;;;9.93;1.92;;;7.00;99.90;;;;;;4973886;28;20212;-60
2024/01/01 05:54:17;;;;;;;4.30;0.90;;;7.10;99.90;;;;;;4973963;28;20286;-60
2024/01/01 05:56:45;;;;;;;6.10;1.38;;;7.00;99.90;;;;;;4973763;28;20295;-60
2024/01/01 05:59:13;;;;;;;4.22;1.13;;;7.00;99.90;;;;;;4974076;28;20251;-61
2024/01/01 06:01:41;;;;;;;5.28;1.20;;;7.10;99.90;;;;;;4973661;28;20219;-59
2024/01/01 06:04:09;;;;;;;5.80;1.17;;;7.10;99.90;;;;;;4973505;28;20243;-58
2024/01/01 06:06:37;;;;;;;5.35;0.93;;;7.10;99.90;;;;;;4973186;28;20284;-59
2024/01/01 06:09:06;;;;;;;2.80;0.70;;;7.10;99.90;;;;;;4973682;28;20655;-60
2024/01/01 06:11:33;;;;;;;4.78;1.08;;;7.10;99.90;;;;;;4973782;28;20303;-59
2024/01/01 06:14:01;;;;;;;2.83;0.50;;;7.10;99.90;;;;;;4973436;28;20679;-60
2024/01/01 06:16:30;;;;;;;2.25;0.50;;;7.00;99.90;;;;;;4973482;28;20587;-59
2024/01/01 06:18:57;;;;;;;4.40;0.50;;;7.00;99.90;;;;;;4973531;28;20209;-59
2024/01/01 06:21:26;;;;;;;4.60;0.70;;;6.90;99.90;;;;;;4973629;28;20246;-59
2024/01/01 06:23:54;;;;;;;4.45;0.85;;;6.90;99.90;;;;;;4973671;28;20319;-59
2024/01/01 06:26:23;;;;;;;5.68;1.00;;;6.90;99.90;;;;;;4973402;28;20243;-60
2024/01/01 06:28:51;;;;;;;7.30;0.90;;;6.90;99.90;;;;;;4952421;28;20778;-59
2024/01/01 06:31:19;;;;;;;4.15;0.70;;;6.90;99.90;;;;;;4954242;29;20215;-58
2024/01/01 06:33:47;;;;;;;9.05;1.30;;;6.90;99.90;;;;;;4953738;29;20272;-58
2024/01/01 06:36:15;;;;;;;10.13;1.00;;;6.90;99.90;;;;;;4968468;28;20215;-58
2024/01/01 06:38:43;;;;;;;9.35;1.60;;;7.00;99.90;;;;;;4964773;28;20229;-57
2024/01/01 06:41:10;;;;;;;7.28;0.88;;;6.90;99.90;;;;;;4953792;29;20300;-59
2024/01/01 06:43:40;;;;;;;8.82;1.10;;;6.90;99.90;;;;;;4963302;28;20224;-58
2024/01/01 06:46:08;;;;;;;6.40;1.05;;;7.00;99.90;;;;;;4972970;28;20275;-58
2024/01/01 06:48:35;;;;;;;5.20;1.05;;;6.90;99.90;;;;;;4953711;28;20252;-59
2024/01/01 06:51:09;;;;;;;5.13;0.75;;;6.90;99.90;;;;;;4952623;28;20663;-58
2024/01/01 06:53:37;;;;;;;6.28;0.98;;;7.00;99.90;;;;;;4953238;28;20283;-59
2024/01/01 06:56:05;;;;;;;8.65;0.93;;;6.90;99.90;;;;;;4953550;29;20234;-59
2024/01/01 06:58:33;;;;;;;6.40;0.93;;;6.90;99.90;;;;;;4961767;28;20201;-58
2024/01/01 07:01:03;;;;;;;5.45;1.00;;;6.90;99.90;;;;;;4972903;28;20208;-57
2024/01/01 07:03:31;;;;;;;3.22;0.73;;;6.80;99.90;;;;;;4968877;28;20651;-58
2024/01/01 07:05:59;;;;;;;2.63;0.85;;;6.80;99.90;;;;;;4953753;29;20205;-58
2024/01/01 07:08:27;;;;;;;3.78;1.00;;;6.80;99.90;;;;;;4957866;28;20711;-58
2024/01/01 07:10:57;;;;;;;6.88;1.67;;;6.80;99.90;;;;;;4945889;29;20206;-58
2024/01/01 07:13:25;;;;;;;6.65;1.00;;;6.80;99.90;;;;;;4960802;28;20558;-58
2024/01/01 07:15:53;;;;;;;4.95;0.80;;;6.80;99.90;;;;;;4972983;28;20208;-59
2024/01/01 07:18:22;;;;;;;9.60;1.85;;;6.70;99.90;;;;;;4972591;28;20288;-58
2024/01/01 07:20:50;;;;;;;8.05;0.95;;;6.70;99.90;;;;;;4972833;28;20208;-58
2024/01/01 07:23:19;;;;;;;6.03;1.20;;;6.70;99.90;;;;;;4973008;28;20236;-58
2024/01/01 07:25:47;;;;;;;9.82;1.40;;;6.60;99.90;;;;;;4972768;28;20594;-58
2024/01/01 07:28:15;;;;;;;8.65;1.40;;;6.70;99.90;;;;;;4972417;28;20260;-59
2024/01/01 07:30:43;;;;;;;9.15;1.40;;;6.70;99.90;;;;;;4972552;28;20583;-60
2024/01/01 07:33:11;;;;;;;8.07;1.60;;;6.70;99.90;;;;;;4972463;28;20220;-58
2024/01/01 07:35:40;;;;;;;8.10;1.33;;;6.70;99.90;;;;;;4972631;28;20225;-58
2024/01/01 07:38:08;;;;;;;4.38;1.05;;;6.70;99.90;;;;;;4972073;28;20229;-58
2024/01/01 07:40:36;;;;;;;6.70;1.52;;;6.60;99.90;;;;;;4972507;28;20240;-58
2024/01/01 07:43:05;;;;;;;4.93;1.50;;;6.60;99.90;;;;;;4972225;28;20295;-59
2024/01/01 07:45:33;;;;;;;6.65;1.20;;;6.70;99.90;;;;;;4972487;28;20307;-58
2024/01/01 07:48:01;;;;;;;12.32;1.95;;;6.70;99.90;;;;;;4960209;28;20274;-58
2024/01/01 07:50:29;;;;;;;3.20;1.08;;;6.70;99.90;;;;;;4968849;28;20291;-59
2024/01/01 07:52:58;;;;;;;8.45;1.35;;;6.70;99.90;;;;;;4972227;28;20261;-58
2024/01/01 07:55:27;;;;;;;7.05;1.50;;;6.70;99.90;;;;;;4972503;28;20221;-59
2024/01/01 07:57:55;;;;;;;6.18;1.10;;;6.70;99.90;;;;;;4972202;28;20232;-58
2024/01/01 08:00:24;;;;;;;8.50;1.52;;;6.70;99.90;;;;;;4972333;28;20670;-57
2024/01/01 08:02:52;;;;;;;4.88;1.23;;;6.70;99.90;;;;;;4972727;28;20287;-59
2024/01/01 08:05:20;;;;;;;7.97;1.20;;;6.70;99.90;;;;;;4975844;28;20647;-57
2024/01/01 08:07:48;;;;;;;10.00;1.40;;;6.70;99.90;;;;;;4975657;28;20259;-58
2024/01/01 08:10:18;;;;;;;10.02;1.50;;;6.70;99.90;;;;;;4975992;28;20200;-59
2024/01/01 08:12:46;;;;;;;8.27;1.38;;;6.70;99.90;;;;;;4975593;28;20296;-57
2024/01/01 08:15:13;;;;;;;8.52;1.40;;;6.70;99.90;;;;;;4975792;28;20327;-58
2024/01/01 08:17:41;;;;;;;11.07;1.38;;;6.70;99.90;;;;;;4975326;28;20291;-57
2024/01/01 08:20:11;;;;;;;11.60;1.30;;;6.70;99.90;;;;;;4975967;28;20224;-57
2024/01/01 08:22:39;;;;;;;9.30;1.30;;;6.60;99.90;;;;;;4975624;28;20208;-58
2024/01/01 08:25:07;;;;;;;7.50;1.58;;;6.70;99.90;;;;;;4975732;28;20232;-58
2024/01/01 08:27:36;;;;;;;8.05;1.42;;;6.60;99.90;;;;;;4974964;28;20244;-58
2024/01/01 08:30:06;;;;;;;7.78;1.08;;;6.70;99.90;;;;;;4975507;28;20247;-57
2024/01/01 08:32:34;;;;;;;8.52;1.92;;;6.70;99.90;;;;;;4975541;28;20213;-59
2024/01/01 08:35:02;;;;;;;7.75;1.17;;;6.70;99.90;;;;;;4975328;28;20702;-58
2024/01/01 08:37:30;;;;;;;7.22;1.20;;;6.80;99.90;;;;;;4975339;28;20303;-58
2024/01/01 08:39:58;;;;;;;10.73;1.70;;;6.80;99.90;;;;;;4975274;28;20624;-58
2024/01/01 08:42:26;;;;;;;12.98;2.05;;;6.80;99.90;;;;;;4975184;28;20267;-58
2024/01/01 08:44:56;;;;;;;9.02;1.45;;;6.80;99.90;;;;;;4975091;28;20298;-58
2024/01/01 08:47:23;;;;;;;17.17;1.77;;;6.90;99.90;;;;;;4974882;28;20613;-58
2024/01/01 08:49:51;;;;;;;12.60;2.38;;;6.90;99.90;;;;;;4975233;28;20319;-58
2024/01/01 08:52:19;;;;;;;11.73;1.98;;;6.90;99.90;;;;;;4975019;28;20216;-58
2024/01/01 08:54:47;;;;;;;17.75;2.28;;;6.90;99.90;;;;;;4975038;28;20781;-57
2024/01/01 08:57:15;;;;;;;11.95;2.03;;;7.00;99.90;;;;;;4974736;28;20312;-58
2024/01/01 08:59:43;;;;;;;6.57;1.40;;;7.00;99.90;;;;;;4975173;28;20251;-57
2024/01/01 09:02:12;;;;;;;7.00;1.70;;;7.10;99.90;;;;;;4974950;28;20228;-58
2024/01/01 09:04:40;;;;;;;7.28;1.50;;;7.20;99.90;;;;;;4974703;28;20244;-58
2024/01/01 09:07:08;;;;;;;11.98;1.40;;;7.30;99.90;;;;;;4974449;28;20209;-58
2024/01/01 09:09:37;;;;;;;6.22;0.98;;;7.40;99.90;;;;;;4974789;28;20256;-58
2024/01/01 09:12:05;;;;;;;8.48;1.15;;;7.50;99.90;;;;;;4974495;28;20209;-57
2024/01/01 09:14:35;;;;;;;6.75;1.25;;;7.60;99.90;;;;;;4974312;28;20283;-57
2024/01/01 09:17:04;;;;;;;8.45;1.30;;;7.70;99.90;;;;;;4974444;28;20208;-58
2024/01/01 09:19:33;;;;;;;6.10;1.17;;;7.80;99.90;;;;;;4974729;28;20235;-58
2024/01/01 09:22:01;;;;;;;4.75;0.68;;;7.80;99.90;;;;;;4958635;28;20242;-57
2024/01/01 09:24:29;;;;;;;2.25;0.70;;;7.80;99.90;;;;;;4974509;28;20263;-58
2024/01/01 09:26:58;;;;;;;2.15;0.50;;;7.80;99.90;;;;;;4974262;28;20247;-58
2024/01/01 09:29:26;;;;;;;2.78;0.90;;;7.80;99.90;;;;;;4974233;28;20220;-58
2024/01/01 09:31:54;;;;;;;6.93;0.52;;;7.80;99.90;;;;;;4974320;28;20208;-56
2024/01/01 09:34:22;;;;;;;6.45;0.85;;;7.80;99.90;;;;;;4974460;28;20220;-59
2024/01/01 09:36:51;;;;;;;4.10;0.77;;;7.80;99.90;;;;;;4973904;28;20209;-58
2024/01/01 09:39:30;;;;;;;5.13;0.88;;;7.70;99.90;;;;;;4974305;28;20646;-58
2024/01/01 09:41:58;;;;;;;5.07;1.23;;;7.70;99.90;;;;;;4974315;28;20219;-57
2024/01/01 09:44:26;;;;;;;5.47;1.10;;;7.70;99.90;;;;;;4974281;28;20220;-58
2024/01/01 09:46:54;;;;;;;4.93;1.00;;;7.70;99.90;;;;;;4973992;28;20216;-57
2024/01/01 09:49:24;;;;;;;6.53;1.00;;;7.70;99.90;;;;;;4973802;28;20279;-58
2024/01/01 09:51:56;;;;;;;6.72;1.27;;;7.70;99.90;;;;;;4973866;28;20212;-58
2024/01/01 09:54:24;;;;;;;11.27;1.50;;;7.70;99.90;;;;;;4974109;28;20230;-58
2024/01/01 09:56:52;;;;;;;5.03;1.50;;;7.70;99.90;;;;;;4973840;28;20220;-57
2024/01/01 09:59:33;;;;;;;8.70;1.35;;;7.70;99.90;;;;;;4973965;28;20205;-58
2024/01/01 10:02:05;;;;;;;13.30;1.63;;;7.80;99.90;;;;;;4973622;28;20213;-58
2024/01/01 10:04:34;;;;;;;6.63;1.35;;;7.80;99.90;;;;;;4997577;23;20283;-72
2024/01/01 10:07:04;;;;;;;9.40;1.50;;;7.80;99.90;;;;;;4964092;28;20315;-72
2024/01/01 10:09:32;;;;;;;6.35;1.42;;;7.80;99.90;;;;;;4968445;28;20217;-71
2024/01/01 10:12:09;;;;;;;9.82;1.70;;;7.90;99.90;;;;;;4976536;23;20237;-60
2024/01/01 10:14:47;;;;;;;17.52;1.95;;;7.90;99.90;;;;;;4953922;28;20272;-61
2024/01/01 10:17:16;;;;;;;12.05;1.98;;;7.90;99.90;;;;;;4966822;28;20216;-61
2024/01/01 10:19:50;;;;;;;11.10;2.08;;;8.00;99.90;;;;;;4973400;28;20232;-61
2024/01/01 10:22:19;;;;;;;8.38;2.00;;;8.00;99.90;;;;;;4973177;28;20263;-61
2024/01/01 10:24:47;;;;;;;8.00;1.73;;;8.00;99.90;;;;;;4973015;28;20217;-61
2024/01/01 10:27:17;;;;;;;13.50;2.00;;;8.00;99.90;;;;;;4972168;28;20212;-61
2024/01/01 10:29:46;;;;;;;11.07;1.88;;;8.00;99.90;;;;;;4973154;28;20316;-60
2024/01/01 10:32:15;;;;;;;12.18;2.22;;;8.00;99.90;;;;;;4973039;28;20304;-62
2024/01/01 10:34:43;;;;;;;8.00;2.20;;;8.00;99.90;;;;;;4973139;28;20212;-61
2024/01/01 10:37:11;;;;;;;11.43;2.10;;;8.10;99.90;;;;;;4972806;28;20207;-61
2024/01/01 10:39:41;;;;;;;12.25;2.47;;;8.10;99.90;;;;;;4972988;28;20872;-61
2024/01/01 10:42:10;;;;;;;12.60;1.80;;;8.20;99.90;;;;;;4973114;28;20593;-61
2024/01/01 10:44:38;;;;;;;9.80;1.98;;;8.20;99.90;;;;;;4972904;28;20248;-61
2024/01/01 10:47:08;;;;;;;8.27;1.63;;;8.30;99.90;;;;;;4972759;28;20291;-60
2024/01/01 10:49:36;;;;;;;18.35;2.97;;;8.30;99.90;;;;;;4972846;28;20236;-61
2024/01/01 10:52:21;;;;;;;13.48;2.75;;;8.30;99.90;;;;;;4970631;28;20209;-61
2024/01/01 10:55:11;;;;;;;11.80;1.55;;;8.40;99.90;;;;;;4972746;28;20260;-61
2024/01/01 10:58:06;;;;;;;7.65;1.88;;;8.40;99.90;;;;;;4953434;28;20257;-61
2024/01/01 11:00:35;;;;;;;18.40;2.17;;;8.40;99.90;;;;;;4953440;28;20224;-60
2024/01/01 11:03:03;;;;;;;11.95;1.95;;;8.50;99.90;;;;;;4953575;28;20211;-61
2024/01/01 11:05:32;;;;;;;13.32;2.28;;;8.50;99.90;;;;;;4953578;28;20279;-60
2024/01/01 11:08:01;;;;;;;15.75;2.13;;;8.50;99.90;;;;;;4953086;28;20255;-61
2024/01/01 11:10:37;;;;;;;8.68;1.90;;;8.60;99.90;;;;;;4953335;29;20572;-61
2024/01/01 11:13:12;;;;;;;13.88;1.83;;;8.70;99.90;;;;;;4965412;28;20205;-61
2024/01/01 11:15:41;;;;;;;13.75;1.85;;;8.80;99.90;;;;;;4957520;28;20312;-61
2024/01/01 11:18:16;;;;;;;12.10;2.25;;;8.80;99.90;;;;;;4962274;28;20201;-60
2024/01/01 11:20:52;;;;;;;16.48;1.98;;;8.80;99.90;;;;;;4959259;28;20729;-61
2024/01/01 11:23:39;;;;;;;16.30;2.00;;;8.80;99.90;;;;;;4964176;28;20295;-61
2024/01/01 11:26:30;;;;;;;12.10;2.42;;;8.70;99.90;;;;;;4957684;28;20225;-61
2024/01/01 11:28:59;;;;;;;16.88;2.67;;;8.70;99.90;;;;;;4963276;28;20228;-61
2024/01/01 11:31:27;;;;;;;13.48;2.20;;;8.70;99.90;;;;;;4966944;28;20280;-60
2024/01/01 11:34:02;;;;;;;11.18;2.25;;;8.70;99.90;;;;;;4967453;28;20660;-61
2024/01/01 11:36:47;;;;;;;14.07;1.90;;;8.70;99.90;;;;;;4962819;28;20324;-61
2024/01/01 11:39:16;;;;;;;7.68;2.03;;;8.80;99.90;;;;;;4960613;28;20208;-61
2024/01/01 11:41:45;;;;;;;11.80;2.03;;;8.70;99.90;;;;;;4975916;28;20648;-61
2024/01/01 11:44:14;;;;;;;16.20;2.05;;;8.70;99.90;;;;;;4966226;28;20233;-61
2024/01/01 11:46:42;;;;;;;10.85;1.83;;;8.70;99.90;;;;;;4964027;28;20239;-61
2024/01/01 11:49:10;;;;;;;16.70;2.05;;;8.70;99.90;;;;;;4956683;28;20289;-60
2024/01/01 11:51:49;;;;;;;8.00;1.55;;;8.70;99.90;;;;;;4959417;28;20228;-60
2024/01/01 11:54:16;;;;;;;9.82;1.60;;;8.80;99.90;;;;;;4968809;28;20587;-61
2024/01/01 11:56:46;;;;;;;8.00;1.40;;;8.80;99.90;;;;;;4975132;28;20287;-61
2024/01/01 11:59:14;;;;;;;8.52;1.70;;;8.80;99.90;;;;;;4975846;28;20200;-60
2024/01/01 12:01:44;;;;;;;10.82;1.80;;;8.80;99.90;;;;;;4975816;28;20287;-61
2024/01/01 12:04:12;;;;;;;10.85;1.88;;;8.80;99.90;;;;;;4976108;28;20209;-61
2024/01/01 12:06:40;;;;;;;12.95;1.83;;;8.80;99.90;;;;;;4975652;28;20262;-61
2024/01/01 12:09:09;;;;;;;6.65;1.15;;;8.90;99.90;;;;;;4975738;28;20204;-61
2024/01/01 12:11:37;;;;;;;9.45;1.45;;;8.90;99.90;;;;;;4975845;28;20256;-61
2024/01/01 12:14:06;;;;;;;9.32;1.83;;;8.90;99.90;;;;;;4975807;28;20639;-61
2024/01/01 12:16:34;;;;;;;10.13;1.60;;;9.00;99.90;;;;;;4975759;28;20229;-61
2024/01/01 12:19:03;;;;;;;9.13;1.70;;;9.00;99.90;;;;;;4975485;28;20303;-61
2024/01/01 12:21:40;;;;;;;7.03;1.50;;;8.90;99.90;;;;;;4975609;28;20215;-61
2024/01/01 12:24:09;;;;;;;9.82;1.83;;;8.90;99.90;;;;;;4975520;28;20681;-61
2024/01/01 12:26:37;;;;;;;11.68;1.30;;;8.90;99.90;;;;;;4975496;28;20263;-61
2024/01/01 12:29:16;;;;;;;10.55;1.52;;;8.80;99.90;;;;;;4975287;28;20219;-61
2024/01/01 12:31:45;;;;;;;10.00;1.60;;;8.80;99.90;;;;;;4975298;28;20589;-61
2024/01/01 12:34:14;;;;;;;12.07;1.52;;;8.80;99.90;;;;;;4975285;28;20573;-60
2024/01/01 12:36:43;;;;;;;11.43;2.05;;;8.80;99.90;;;;;;4975352;28;20231;-60
2024/01/01 12:39:11;;;;;;;7.43;1.60;;;8.80;99.90;;;;;;4975162;28;20208;-61
2024/01/01 12:41:39;;;;;;;9.55;1.75;;;8.80;99.90;;;;;;4975387;28;20248;-61
2024/01/01 12:44:07;;;;;;;9.95;1.92;;;8.80;99.90;;;;;;4975096;28;20270;-61
2024/01/01 12:46:37;;;;;;;8.45;1.85;;;8.80;99.90;;;;;;4974840;28;20294;-61
2024/01/01 12:49:05;;;;;;;14.57;1.55;;;8.80;99.90;;;;;;4974295;28;20733;-61
2024/01/01 12:51:33;;;;;;;10.07;1.58;;;8.80;99.90;;;;;;4974609;28;20720;-61
2024/01/01 12:54:02;;;;;;;6.53;1.33;;;8.70;99.90;;;;;;4974934;28;20219;-61
2024/01/01 12:56:30;;;;;;;7.70;1.80;;;8.70;99.90;;;;;;4974976;28;20706;-61
2024/01/01 12:58:58;;;;;;;13.52;1.75;;;8.70;99.90;;;;;;4974009;28;20267;-62